sensor_id;sensor_type;location;lat;lon;timestamp;P1;durP1;ratioP1;P2;durP2;ratioP2
24008;SDS011;12217;50.792;4.372;2024-01-30T00:00:09;9.02;;;7.55;;
24008;SDS011;12217;50.792;4.372;2024-01-30T00:02:35;9.15;;;6.82;;
24008;SDS011;12217;50.792;4.372;2024-01-30T00:05:00;10.57;;;6.80;;
24008;SDS011;12217;50.792;4.372;2024-01-30T00:07:26;8.80;;;6.82;;
24008;SDS011;12217;50.792;4.372;2024-01-30T00:09:54;8.90;;;6.88;;
24008;SDS011;12217;50.792;4.372;2024-01-30T00:12:20;11.27;;;7.18;;
24008;SDS011;12217;50.792;4.372;2024-01-30T00:14:55;10.32;;;6.90;;
24008;SDS011;12217;50.792;4.372;2024-01-30T00:17:24;8.48;;;7.10;;
24008;SDS011;12217;50.792;4.372;2024-01-30T00:19:58;9.45;;;7.00;;
24008;SDS011;12217;50.792;4.372;2024-01-30T00:22:33;8.07;;;6.70;;
24008;SDS011;12217;50.792;4.372;2024-01-30T00:24:59;9.52;;;6.60;;
24008;SDS011;12217;50.792;4.372;2024-01-30T00:27:25;8.30;;;6.60;;
24008;SDS011;12217;50.792;4.372;2024-01-30T00:29:52;8.43;;;6.47;;
24008;SDS011;12217;50.792;4.372;2024-01-30T00:32:18;7.78;;;6.75;;
24008;SDS011;12217;50.792;4.372;2024-01-30T00:34:48;9.60;;;6.82;;
24008;SDS011;12217;50.792;4.372;2024-01-30T00:37:13;9.45;;;7.00;;
24008;SDS011;12217;50.792;4.372;2024-01-30T00:39:45;9.55;;;6.97;;
24008;SDS011;12217;50.792;4.372;2024-01-30T00:42:16;9.82;;;6.70;;
24008;SDS011;12217;50.792;4.372;2024-01-30T00:44:42;8.60;;;6.30;;
24008;SDS011;12217;50.792;4.372;2024-01-30T00:47:07;8.35;;;6.30;;
24008;SDS011;12217;50.792;4.372;2024-01-30T00:49:33;9.00;;;6.82;;
24008;SDS011;12217;50.792;4.372;2024-01-30T00:51:58;9.32;;;6.38;;
24008;SDS011;12217;50.792;4.372;2024-01-30T00:54:24;9.10;;;6.53;;
24008;SDS011;12217;50.792;4.372;2024-01-30T00:56:50;10.18;;;6.22;;
24008;SDS011;12217;50.792;4.372;2024-01-30T00:59:15;9.93;;;6.70;;
24008;SDS011;12217;50.792;4.372;2024-01-30T01:01:41;8.70;;;6.43;;
24008;SDS011;12217;50.792;4.372;2024-01-30T01:04:06;9.73;;;7.03;;
24008;SDS011;12217;50.792;4.372;2024-01-30T01:06:32;9.15;;;6.78;;
24008;SDS011;12217;50.792;4.372;2024-01-30T01:08:58;7.00;;;6.00;;
24008;SDS011;12217;50.792;4.372;2024-01-30T01:11:23;8.57;;;6.57;;
24008;SDS011;12217;50.792;4.372;2024-01-30T01:13:49;10.75;;;6.95;;
24008;SDS011;12217;50.792;4.372;2024-01-30T01:16:14;9.55;;;7.10;;
24008;SDS011;12217;50.792;4.372;2024-01-30T01:18:40;10.98;;;6.90;;
24008;SDS011;12217;50.792;4.372;2024-01-30T01:21:05;8.02;;;6.50;;
24008;SDS011;12217;50.792;4.372;2024-01-30T01:23:31;12.43;;;6.97;;
24008;SDS011;12217;50.792;4.372;2024-01-30T01:25:57;8.25;;;6.07;;
24008;SDS011;12217;50.792;4.372;2024-01-30T01:28:24;10.20;;;6.30;;
24008;SDS011;12217;50.792;4.372;2024-01-30T01:30:50;6.88;;;6.18;;
24008;SDS011;12217;50.792;4.372;2024-01-30T01:33:16;9.63;;;6.50;;
24008;SDS011;12217;50.792;4.372;2024-01-30T01:35:42;7.85;;;5.75;;
24008;SDS011;12217;50.792;4.372;2024-01-30T01:38:08;9.63;;;6.25;;
24008;SDS011;12217;50.792;4.372;2024-01-30T01:40:33;8.75;;;6.25;;
24008;SDS011;12217;50.792;4.372;2024-01-30T01:43:02;9.50;;;6.30;;
24008;SDS011;12217;50.792;4.372;2024-01-30T01:45:30;11.07;;;6.60;;
24008;SDS011;12217;50.792;4.372;2024-01-30T01:47:56;10.60;;;6.53;;
24008;SDS011;12217;50.792;4.372;2024-01-30T01:50:21;10.18;;;5.85;;
24008;SDS011;12217;50.792;4.372;2024-01-30T01:52:48;7.85;;;5.97;;
24008;SDS011;12217;50.792;4.372;2024-01-30T01:55:14;6.72;;;5.82;;
24008;SDS011;12217;50.792;4.372;2024-01-30T01:57:44;7.13;;;5.93;;
24008;SDS011;12217;50.792;4.372;2024-01-30T02:00:10;9.15;;;6.15;;
24008;SDS011;12217;50.792;4.372;2024-01-30T02:02:37;9.80;;;6.63;;
24008;SDS011;12217;50.792;4.372;2024-01-30T02:05:04;9.85;;;6.10;;
24008;SDS011;12217;50.792;4.372;2024-01-30T02:07:31;8.88;;;6.70;;
24008;SDS011;12217;50.792;4.372;2024-01-30T02:09:56;10.40;;;6.50;;
24008;SDS011;12217;50.792;4.372;2024-01-30T02:12:22;10.93;;;6.57;;
24008;SDS011;12217;50.792;4.372;2024-01-30T02:14:48;7.90;;;6.40;;
24008;SDS011;12217;50.792;4.372;2024-01-30T02:17:15;8.05;;;6.18;;
24008;SDS011;12217;50.792;4.372;2024-01-30T02:19:41;7.93;;;6.45;;
24008;SDS011;12217;50.792;4.372;2024-01-30T02:22:07;10.27;;;6.60;;
24008;SDS011;12217;50.792;4.372;2024-01-30T02:24:33;9.13;;;6.07;;
24008;SDS011;12217;50.792;4.372;2024-01-30T02:26:59;7.55;;;5.88;;
24008;SDS011;12217;50.792;4.372;2024-01-30T02:29:24;7.65;;;6.50;;
24008;SDS011;12217;50.792;4.372;2024-01-30T02:31:50;8.52;;;5.68;;
24008;SDS011;12217;50.792;4.372;2024-01-30T02:34:16;10.85;;;6.03;;
24008;SDS011;12217;50.792;4.372;2024-01-30T02:36:44;7.90;;;6.13;;
24008;SDS011;12217;50.792;4.372;2024-01-30T02:39:10;9.48;;;6.70;;
24008;SDS011;12217;50.792;4.372;2024-01-30T02:41:36;8.88;;;6.05;;
24008;SDS011;12217;50.792;4.372;2024-01-30T02:44:02;10.30;;;6.28;;
24008;SDS011;12217;50.792;4.372;2024-01-30T02:46:28;8.48;;;6.45;;
24008;SDS011;12217;50.792;4.372;2024-01-30T02:48:54;8.75;;;6.43;;
24008;SDS011;12217;50.792;4.372;2024-01-30T02:51:20;10.25;;;6.18;;
24008;SDS011;12217;50.792;4.372;2024-01-30T02:53:45;7.15;;;5.72;;
24008;SDS011;12217;50.792;4.372;2024-01-30T02:56:11;7.85;;;6.40;;
24008;SDS011;12217;50.792;4.372;2024-01-30T02:58:39;9.30;;;6.30;;
24008;SDS011;12217;50.792;4.372;2024-01-30T03:01:05;8.00;;;5.95;;
24008;SDS011;12217;50.792;4.372;2024-01-30T03:03:32;9.07;;;5.80;;
24008;SDS011;12217;50.792;4.372;2024-01-30T03:05:59;8.40;;;5.80;;
24008;SDS011;12217;50.792;4.372;2024-01-30T03:08:24;7.47;;;5.88;;
24008;SDS011;12217;50.792;4.372;2024-01-30T03:10:50;8.77;;;5.97;;
24008;SDS011;12217;50.792;4.372;2024-01-30T03:13:15;12.43;;;6.57;;
24008;SDS011;12217;50.792;4.372;2024-01-30T03:15:41;7.57;;;6.00;;
24008;SDS011;12217;50.792;4.372;2024-01-30T03:18:07;11.07;;;6.30;;
24008;SDS011;12217;50.792;4.372;2024-01-30T03:20:32;9.15;;;6.18;;
24008;SDS011;12217;50.792;4.372;2024-01-30T03:22:59;9.02;;;6.30;;
24008;SDS011;12217;50.792;4.372;2024-01-30T03:25:25;9.80;;;5.97;;
24008;SDS011;12217;50.792;4.372;2024-01-30T03:27:51;6.95;;;5.72;;
24008;SDS011;12217;50.792;4.372;2024-01-30T03:30:22;9.73;;;6.22;;
24008;SDS011;12217;50.792;4.372;2024-01-30T03:32:59;8.70;;;6.25;;
24008;SDS011;12217;50.792;4.372;2024-01-30T03:35:25;10.68;;;5.68;;
24008;SDS011;12217;50.792;4.372;2024-01-30T03:37:50;7.82;;;6.28;;
24008;SDS011;12217;50.792;4.372;2024-01-30T03:40:22;9.73;;;6.22;;
24008;SDS011;12217;50.792;4.372;2024-01-30T03:42:48;9.38;;;6.00;;
24008;SDS011;12217;50.792;4.372;2024-01-30T03:45:13;9.95;;;6.28;;
24008;SDS011;12217;50.792;4.372;2024-01-30T03:47:39;9.75;;;6.00;;
24008;SDS011;12217;50.792;4.372;2024-01-30T03:50:05;9.82;;;6.55;;
24008;SDS011;12217;50.792;4.372;2024-01-30T03:52:31;9.77;;;6.53;;
24008;SDS011;12217;50.792;4.372;2024-01-30T03:54:56;8.30;;;6.00;;
24008;SDS011;12217;50.792;4.372;2024-01-30T03:57:22;8.82;;;6.13;;
24008;SDS011;12217;50.792;4.372;2024-01-30T03:59:47;8.10;;;5.88;;
24008;SDS011;12217;50.792;4.372;2024-01-30T04:02:13;9.02;;;6.28;;
24008;SDS011;12217;50.792;4.372;2024-01-30T04:04:38;8.02;;;6.18;;
24008;SDS011;12217;50.792;4.372;2024-01-30T04:07:04;7.95;;;5.72;;
24008;SDS011;12217;50.792;4.372;2024-01-30T04:09:30;8.00;;;6.63;;
24008;SDS011;12217;50.792;4.372;2024-01-30T04:11:56;9.93;;;7.00;;
24008;SDS011;12217;50.792;4.372;2024-01-30T04:14:22;10.82;;;6.30;;
24008;SDS011;12217;50.792;4.372;2024-01-30T04:16:47;7.57;;;6.32;;
24008;SDS011;12217;50.792;4.372;2024-01-30T04:19:13;9.02;;;6.38;;
24008;SDS011;12217;50.792;4.372;2024-01-30T04:21:39;9.63;;;6.47;;
24008;SDS011;12217;50.792;4.372;2024-01-30T04:24:04;9.43;;;6.35;;
24008;SDS011;12217;50.792;4.372;2024-01-30T04:26:30;9.45;;;6.72;;
24008;SDS011;12217;50.792;4.372;2024-01-30T04:28:56;13.35;;;6.65;;
24008;SDS011;12217;50.792;4.372;2024-01-30T04:31:22;13.32;;;6.80;;
24008;SDS011;12217;50.792;4.372;2024-01-30T04:33:48;8.38;;;6.50;;
24008;SDS011;12217;50.792;4.372;2024-01-30T04:36:31;11.43;;;6.90;;
24008;SDS011;12217;50.792;4.372;2024-01-30T04:38:57;9.23;;;6.93;;
24008;SDS011;12217;50.792;4.372;2024-01-30T04:41:23;9.00;;;6.75;;
24008;SDS011;12217;50.792;4.372;2024-01-30T04:43:49;9.00;;;6.38;;
24008;SDS011;12217;50.792;4.372;2024-01-30T04:46:14;7.38;;;6.30;;
24008;SDS011;12217;50.792;4.372;2024-01-30T04:48:40;7.40;;;6.50;;
24008;SDS011;12217;50.792;4.372;2024-01-30T04:51:06;9.35;;;6.68;;
24008;SDS011;12217;50.792;4.372;2024-01-30T04:53:31;10.85;;;6.85;;
24008;SDS011;12217;50.792;4.372;2024-01-30T04:55:57;7.53;;;6.72;;
24008;SDS011;12217;50.792;4.372;2024-01-30T04:58:22;9.40;;;6.95;;
24008;SDS011;12217;50.792;4.372;2024-01-30T05:00:48;8.77;;;6.57;;
24008;SDS011;12217;50.792;4.372;2024-01-30T05:03:16;8.90;;;6.57;;
24008;SDS011;12217;50.792;4.372;2024-01-30T05:05:45;9.43;;;6.90;;
24008;SDS011;12217;50.792;4.372;2024-01-30T05:08:11;9.02;;;6.78;;
24008;SDS011;12217;50.792;4.372;2024-01-30T05:10:36;10.48;;;6.55;;
24008;SDS011;12217;50.792;4.372;2024-01-30T05:13:02;9.35;;;7.00;;
24008;SDS011;12217;50.792;4.372;2024-01-30T05:15:27;8.80;;;6.93;;
24008;SDS011;12217;50.792;4.372;2024-01-30T05:17:53;9.50;;;7.10;;
24008;SDS011;12217;50.792;4.372;2024-01-30T05:20:19;9.30;;;7.05;;
24008;SDS011;12217;50.792;4.372;2024-01-30T05:22:45;8.00;;;6.78;;
24008;SDS011;12217;50.792;4.372;2024-01-30T05:25:13;13.23;;;7.25;;
24008;SDS011;12217;50.792;4.372;2024-01-30T05:27:39;11.48;;;7.10;;
24008;SDS011;12217;50.792;4.372;2024-01-30T05:30:05;10.27;;;7.28;;
24008;SDS011;12217;50.792;4.372;2024-01-30T05:32:31;12.65;;;6.97;;
24008;SDS011;12217;50.792;4.372;2024-01-30T05:35:02;9.68;;;7.10;;
24008;SDS011;12217;50.792;4.372;2024-01-30T05:37:32;8.63;;;6.53;;
24008;SDS011;12217;50.792;4.372;2024-01-30T05:39:58;8.07;;;6.88;;
24008;SDS011;12217;50.792;4.372;2024-01-30T05:42:27;10.40;;;7.15;;
24008;SDS011;12217;50.792;4.372;2024-01-30T05:44:53;9.45;;;7.15;;
24008;SDS011;12217;50.792;4.372;2024-01-30T05:47:28;9.18;;;7.28;;
24008;SDS011;12217;50.792;4.372;2024-01-30T05:49:54;11.00;;;6.60;;
24008;SDS011;12217;50.792;4.372;2024-01-30T05:52:23;11.02;;;6.85;;
24008;SDS011;12217;50.792;4.372;2024-01-30T05:54:51;11.20;;;6.63;;
24008;SDS011;12217;50.792;4.372;2024-01-30T05:57:17;12.43;;;7.70;;
24008;SDS011;12217;50.792;4.372;2024-01-30T05:59:49;14.27;;;7.85;;
24008;SDS011;12217;50.792;4.372;2024-01-30T06:02:21;9.80;;;7.00;;
24008;SDS011;12217;50.792;4.372;2024-01-30T06:04:46;12.77;;;7.72;;
24008;SDS011;12217;50.792;4.372;2024-01-30T06:07:12;10.13;;;7.47;;
24008;SDS011;12217;50.792;4.372;2024-01-30T06:09:37;10.70;;;7.38;;
24008;SDS011;12217;50.792;4.372;2024-01-30T06:12:03;10.13;;;7.70;;
24008;SDS011;12217;50.792;4.372;2024-01-30T06:14:30;11.15;;;8.23;;
24008;SDS011;12217;50.792;4.372;2024-01-30T06:16:56;12.43;;;7.85;;
24008;SDS011;12217;50.792;4.372;2024-01-30T06:19:21;10.02;;;7.80;;
24008;SDS011;12217;50.792;4.372;2024-01-30T06:21:47;11.65;;;8.45;;
24008;SDS011;12217;50.792;4.372;2024-01-30T06:24:13;9.55;;;7.40;;
24008;SDS011;12217;50.792;4.372;2024-01-30T06:26:38;10.52;;;7.82;;
24008;SDS011;12217;50.792;4.372;2024-01-30T06:29:04;9.80;;;7.72;;
24008;SDS011;12217;50.792;4.372;2024-01-30T06:31:30;11.35;;;7.90;;
24008;SDS011;12217;50.792;4.372;2024-01-30T06:33:56;12.27;;;7.90;;
24008;SDS011;12217;50.792;4.372;2024-01-30T06:36:21;11.38;;;7.55;;
24008;SDS011;12217;50.792;4.372;2024-01-30T06:38:47;10.35;;;7.95;;
24008;SDS011;12217;50.792;4.372;2024-01-30T06:41:12;10.90;;;7.30;;
24008;SDS011;12217;50.792;4.372;2024-01-30T06:43:38;12.27;;;8.13;;
24008;SDS011;12217;50.792;4.372;2024-01-30T06:46:04;12.57;;;8.18;;
24008;SDS011;12217;50.792;4.372;2024-01-30T06:48:30;14.90;;;8.30;;
24008;SDS011;12217;50.792;4.372;2024-01-30T06:50:56;14.88;;;8.13;;
24008;SDS011;12217;50.792;4.372;2024-01-30T06:53:22;11.48;;;8.45;;
24008;SDS011;12217;50.792;4.372;2024-01-30T06:55:48;11.32;;;8.48;;
24008;SDS011;12217;50.792;4.372;2024-01-30T06:58:19;9.98;;;7.65;;
24008;SDS011;12217;50.792;4.372;2024-01-30T07:00:45;11.98;;;7.78;;
24008;SDS011;12217;50.792;4.372;2024-01-30T07:03:10;11.70;;;9.52;;
24008;SDS011;12217;50.792;4.372;2024-01-30T07:05:36;12.00;;;8.38;;
24008;SDS011;12217;50.792;4.372;2024-01-30T07:08:05;16.15;;;9.18;;
24008;SDS011;12217;50.792;4.372;2024-01-30T07:10:31;10.75;;;7.80;;
24008;SDS011;12217;50.792;4.372;2024-01-30T07:12:56;10.43;;;8.20;;
24008;SDS011;12217;50.792;4.372;2024-01-30T07:15:22;12.73;;;8.38;;
24008;SDS011;12217;50.792;4.372;2024-01-30T07:17:47;11.95;;;8.10;;
24008;SDS011;12217;50.792;4.372;2024-01-30T07:20:13;15.70;;;8.55;;
24008;SDS011;12217;50.792;4.372;2024-01-30T07:22:39;14.85;;;8.80;;
24008;SDS011;12217;50.792;4.372;2024-01-30T07:25:05;11.82;;;8.15;;
24008;SDS011;12217;50.792;4.372;2024-01-30T07:27:31;9.50;;;7.68;;
24008;SDS011;12217;50.792;4.372;2024-01-30T07:29:57;13.77;;;8.57;;
24008;SDS011;12217;50.792;4.372;2024-01-30T07:32:22;13.25;;;8.23;;
24008;SDS011;12217;50.792;4.372;2024-01-30T07:34:48;11.63;;;7.57;;
24008;SDS011;12217;50.792;4.372;2024-01-30T07:37:14;16.52;;;8.57;;
24008;SDS011;12217;50.792;4.372;2024-01-30T07:39:41;13.70;;;8.35;;
24008;SDS011;12217;50.792;4.372;2024-01-30T07:42:07;14.55;;;8.45;;
24008;SDS011;12217;50.792;4.372;2024-01-30T07:44:33;13.73;;;8.52;;
24008;SDS011;12217;50.792;4.372;2024-01-30T07:46:59;14.95;;;9.45;;
24008;SDS011;12217;50.792;4.372;2024-01-30T07:49:25;17.75;;;9.05;;
24008;SDS011;12217;50.792;4.372;2024-01-30T07:51:51;15.05;;;8.45;;
24008;SDS011;12217;50.792;4.372;2024-01-30T07:54:17;14.75;;;8.18;;
24008;SDS011;12217;50.792;4.372;2024-01-30T07:56:42;13.73;;;8.38;;
24008;SDS011;12217;50.792;4.372;2024-01-30T07:59:11;14.30;;;8.77;;
24008;SDS011;12217;50.792;4.372;2024-01-30T08:01:37;15.70;;;8.73;;
24008;SDS011;12217;50.792;4.372;2024-01-30T08:04:15;17.02;;;8.55;;
24008;SDS011;12217;50.792;4.372;2024-01-30T08:06:47;16.90;;;9.07;;
24008;SDS011;12217;50.792;4.372;2024-01-30T08:09:13;16.20;;;8.85;;
24008;SDS011;12217;50.792;4.372;2024-01-30T08:11:48;13.95;;;8.68;;
24008;SDS011;12217;50.792;4.372;2024-01-30T08:14:19;18.90;;;9.43;;
24008;SDS011;12217;50.792;4.372;2024-01-30T08:16:45;17.70;;;9.13;;
24008;SDS011;12217;50.792;4.372;2024-01-30T08:19:11;17.83;;;9.75;;
24008;SDS011;12217;50.792;4.372;2024-01-30T08:21:37;15.38;;;8.75;;
24008;SDS011;12217;50.792;4.372;2024-01-30T08:24:03;17.30;;;10.05;;
24008;SDS011;12217;50.792;4.372;2024-01-30T08:26:29;22.92;;;9.35;;
24008;SDS011;12217;50.792;4.372;2024-01-30T08:28:56;17.92;;;8.98;;
24008;SDS011;12217;50.792;4.372;2024-01-30T08:31:22;19.13;;;9.27;;
24008;SDS011;12217;50.792;4.372;2024-01-30T08:33:47;21.20;;;9.63;;
24008;SDS011;12217;50.792;4.372;2024-01-30T08:36:13;17.45;;;9.50;;
24008;SDS011;12217;50.792;4.372;2024-01-30T08:38:40;23.25;;;11.23;;
24008;SDS011;12217;50.792;4.372;2024-01-30T08:41:07;19.77;;;10.60;;
24008;SDS011;12217;50.792;4.372;2024-01-30T08:43:33;15.18;;;9.02;;
24008;SDS011;12217;50.792;4.372;2024-01-30T08:46:02;18.17;;;9.73;;
24008;SDS011;12217;50.792;4.372;2024-01-30T08:48:28;20.35;;;10.00;;
24008;SDS011;12217;50.792;4.372;2024-01-30T08:50:54;18.38;;;9.68;;
24008;SDS011;12217;50.792;4.372;2024-01-30T08:53:20;13.25;;;9.70;;
24008;SDS011;12217;50.792;4.372;2024-01-30T08:55:45;14.10;;;9.68;;
24008;SDS011;12217;50.792;4.372;2024-01-30T08:58:11;16.75;;;9.52;;
24008;SDS011;12217;50.792;4.372;2024-01-30T09:00:37;15.80;;;9.80;;
24008;SDS011;12217;50.792;4.372;2024-01-30T09:03:03;17.20;;;10.73;;
24008;SDS011;12217;50.792;4.372;2024-01-30T09:05:29;19.35;;;10.70;;
24008;SDS011;12217;50.792;4.372;2024-01-30T09:07:55;18.33;;;10.85;;
24008;SDS011;12217;50.792;4.372;2024-01-30T09:10:21;15.23;;;9.77;;
24008;SDS011;12217;50.792;4.372;2024-01-30T09:12:47;18.75;;;10.63;;
24008;SDS011;12217;50.792;4.372;2024-01-30T09:15:12;18.15;;;10.48;;
24008;SDS011;12217;50.792;4.372;2024-01-30T09:17:38;17.60;;;10.75;;
24008;SDS011;12217;50.792;4.372;2024-01-30T09:20:07;18.23;;;10.75;;
24008;SDS011;12217;50.792;4.372;2024-01-30T09:22:34;16.75;;;10.75;;
24008;SDS011;12217;50.792;4.372;2024-01-30T09:25:00;15.82;;;11.15;;
24008;SDS011;12217;50.792;4.372;2024-01-30T09:27:25;17.10;;;10.63;;
24008;SDS011;12217;50.792;4.372;2024-01-30T09:29:53;20.08;;;10.48;;
24008;SDS011;12217;50.792;4.372;2024-01-30T09:32:19;20.52;;;10.90;;
24008;SDS011;12217;50.792;4.372;2024-01-30T09:34:44;17.50;;;10.82;;
24008;SDS011;12217;50.792;4.372;2024-01-30T09:37:10;18.45;;;10.80;;
24008;SDS011;12217;50.792;4.372;2024-01-30T09:39:36;19.98;;;11.27;;
24008;SDS011;12217;50.792;4.372;2024-01-30T09:42:05;17.73;;;11.43;;
24008;SDS011;12217;50.792;4.372;2024-01-30T09:44:51;22.20;;;11.00;;
24008;SDS011;12217;50.792;4.372;2024-01-30T09:47:18;18.45;;;11.38;;
24008;SDS011;12217;50.792;4.372;2024-01-30T09:49:44;20.30;;;12.45;;
24008;SDS011;12217;50.792;4.372;2024-01-30T09:52:10;20.20;;;12.52;;
24008;SDS011;12217;50.792;4.372;2024-01-30T09:54:36;22.98;;;12.20;;
24008;SDS011;12217;50.792;4.372;2024-01-30T09:57:03;21.17;;;12.52;;
24008;SDS011;12217;50.792;4.372;2024-01-30T09:59:30;20.35;;;13.00;;
24008;SDS011;12217;50.792;4.372;2024-01-30T10:01:57;18.17;;;12.63;;
24008;SDS011;12217;50.792;4.372;2024-01-30T10:04:22;24.10;;;14.18;;
24008;SDS011;12217;50.792;4.372;2024-01-30T10:06:48;20.83;;;12.45;;
24008;SDS011;12217;50.792;4.372;2024-01-30T10:09:15;25.92;;;12.15;;
24008;SDS011;12217;50.792;4.372;2024-01-30T10:11:41;21.00;;;13.50;;
24008;SDS011;12217;50.792;4.372;2024-01-30T10:14:07;21.33;;;13.50;;
24008;SDS011;12217;50.792;4.372;2024-01-30T10:16:33;20.60;;;12.70;;
24008;SDS011;12217;50.792;4.372;2024-01-30T10:18:59;18.08;;;12.65;;
24008;SDS011;12217;50.792;4.372;2024-01-30T10:21:34;23.15;;;13.48;;
24008;SDS011;12217;50.792;4.372;2024-01-30T10:24:18;21.05;;;13.20;;
24008;SDS011;12217;50.792;4.372;2024-01-30T10:26:51;20.52;;;13.52;;
24008;SDS011;12217;50.792;4.372;2024-01-30T10:29:18;20.58;;;12.70;;
24008;SDS011;12217;50.792;4.372;2024-01-30T10:31:44;21.00;;;12.82;;
24008;SDS011;12217;50.792;4.372;2024-01-30T10:34:18;19.35;;;13.20;;
24008;SDS011;12217;50.792;4.372;2024-01-30T10:36:44;19.13;;;13.50;;
24008;SDS011;12217;50.792;4.372;2024-01-30T10:39:15;22.15;;;12.60;;
24008;SDS011;12217;50.792;4.372;2024-01-30T10:41:43;18.70;;;11.52;;
24008;SDS011;12217;50.792;4.372;2024-01-30T10:44:10;21.88;;;11.52;;
24008;SDS011;12217;50.792;4.372;2024-01-30T10:46:56;20.75;;;10.73;;
24008;SDS011;12217;50.792;4.372;2024-01-30T10:49:44;24.00;;;11.38;;
24008;SDS011;12217;50.792;4.372;2024-01-30T10:52:11;22.98;;;10.95;;
24008;SDS011;12217;50.792;4.372;2024-01-30T10:54:40;18.60;;;11.45;;
24008;SDS011;12217;50.792;4.372;2024-01-30T10:57:08;21.67;;;11.48;;
24008;SDS011;12217;50.792;4.372;2024-01-30T10:59:36;19.20;;;10.38;;
24008;SDS011;12217;50.792;4.372;2024-01-30T11:02:02;30.13;;;11.95;;
24008;SDS011;12217;50.792;4.372;2024-01-30T11:04:35;25.17;;;12.15;;
24008;SDS011;12217;50.792;4.372;2024-01-30T11:07:01;16.25;;;10.40;;
24008;SDS011;12217;50.792;4.372;2024-01-30T11:09:29;18.25;;;10.02;;
24008;SDS011;12217;50.792;4.372;2024-01-30T11:11:58;13.55;;;7.45;;
24008;SDS011;12217;50.792;4.372;2024-01-30T11:16:57;11.55;;;6.03;;
24008;SDS011;12217;50.792;4.372;2024-01-30T11:19:26;13.20;;;5.93;;
24008;SDS011;12217;50.792;4.372;2024-01-30T11:21:52;9.50;;;4.82;;
24008;SDS011;12217;50.792;4.372;2024-01-30T11:24:22;9.52;;;4.35;;
24008;SDS011;12217;50.792;4.372;2024-01-30T11:27:08;6.82;;;3.20;;
24008;SDS011;12217;50.792;4.372;2024-01-30T11:29:49;8.93;;;2.90;;
24008;SDS011;12217;50.792;4.372;2024-01-30T11:32:22;4.70;;;2.15;;
24008;SDS011;12217;50.792;4.372;2024-01-30T11:34:49;7.43;;;2.28;;
24008;SDS011;12217;50.792;4.372;2024-01-30T11:37:15;5.90;;;1.75;;
24008;SDS011;12217;50.792;4.372;2024-01-30T11:40:02;2.83;;;1.50;;
24008;SDS011;12217;50.792;4.372;2024-01-30T11:42:32;4.85;;;1.75;;
24008;SDS011;12217;50.792;4.372;2024-01-30T11:45:00;2.55;;;1.08;;
24008;SDS011;12217;50.792;4.372;2024-01-30T11:47:28;4.10;;;1.63;;
24008;SDS011;12217;50.792;4.372;2024-01-30T11:49:54;2.03;;;1.13;;
24008;SDS011;12217;50.792;4.372;2024-01-30T11:52:20;3.50;;;1.33;;
24008;SDS011;12217;50.792;4.372;2024-01-30T11:54:46;2.50;;;1.08;;
24008;SDS011;12217;50.792;4.372;2024-01-30T11:57:11;6.72;;;1.10;;
24008;SDS011;12217;50.792;4.372;2024-01-30T11:59:43;4.53;;;1.10;;
24008;SDS011;12217;50.792;4.372;2024-01-30T12:02:18;2.63;;;1.08;;
24008;SDS011;12217;50.792;4.372;2024-01-30T12:04:52;4.47;;;1.17;;
24008;SDS011;12217;50.792;4.372;2024-01-30T12:07:21;3.83;;;1.45;;
24008;SDS011;12217;50.792;4.372;2024-01-30T12:09:53;2.20;;;1.02;;
24008;SDS011;12217;50.792;4.372;2024-01-30T12:12:20;4.93;;;1.23;;
24008;SDS011;12217;50.792;4.372;2024-01-30T12:14:48;3.95;;;1.23;;
24008;SDS011;12217;50.792;4.372;2024-01-30T12:17:23;4.55;;;1.50;;
24008;SDS011;12217;50.792;4.372;2024-01-30T12:20:07;5.35;;;1.10;;
24008;SDS011;12217;50.792;4.372;2024-01-30T12:22:38;5.55;;;1.75;;
24008;SDS011;12217;50.792;4.372;2024-01-30T12:25:08;3.92;;;1.33;;
24008;SDS011;12217;50.792;4.372;2024-01-30T12:27:34;4.28;;;0.93;;
24008;SDS011;12217;50.792;4.372;2024-01-30T12:30:10;4.00;;;1.05;;
24008;SDS011;12217;50.792;4.372;2024-01-30T12:32:41;3.38;;;0.80;;
24008;SDS011;12217;50.792;4.372;2024-01-30T12:35:09;3.65;;;1.10;;
24008;SDS011;12217;50.792;4.372;2024-01-30T12:37:36;3.75;;;0.90;;
24008;SDS011;12217;50.792;4.372;2024-01-30T12:40:02;2.65;;;1.00;;
24008;SDS011;12217;50.792;4.372;2024-01-30T12:42:28;3.55;;;0.85;;
24008;SDS011;12217;50.792;4.372;2024-01-30T12:44:54;4.25;;;0.82;;
24008;SDS011;12217;50.792;4.372;2024-01-30T12:47:22;4.05;;;1.15;;
24008;SDS011;12217;50.792;4.372;2024-01-30T12:49:59;3.80;;;0.80;;
24008;SDS011;12217;50.792;4.372;2024-01-30T12:52:28;1.55;;;0.75;;
24008;SDS011;12217;50.792;4.372;2024-01-30T12:54:54;4.45;;;0.80;;
24008;SDS011;12217;50.792;4.372;2024-01-30T12:57:20;1.75;;;0.70;;
24008;SDS011;12217;50.792;4.372;2024-01-30T12:59:46;1.73;;;0.75;;
24008;SDS011;12217;50.792;4.372;2024-01-30T13:02:12;3.15;;;1.00;;
24008;SDS011;12217;50.792;4.372;2024-01-30T13:04:38;3.03;;;0.88;;
24008;SDS011;12217;50.792;4.372;2024-01-30T13:07:05;3.88;;;0.75;;
24008;SDS011;12217;50.792;4.372;2024-01-30T13:09:36;2.67;;;0.80;;
24008;SDS011;12217;50.792;4.372;2024-01-30T13:12:17;4.07;;;1.42;;
24008;SDS011;12217;50.792;4.372;2024-01-30T13:14:46;2.25;;;0.70;;
24008;SDS011;12217;50.792;4.372;2024-01-30T13:17:20;2.20;;;0.80;;
24008;SDS011;12217;50.792;4.372;2024-01-30T13:19:45;2.80;;;0.73;;
24008;SDS011;12217;50.792;4.372;2024-01-30T13:22:11;6.75;;;0.90;;
24008;SDS011;12217;50.792;4.372;2024-01-30T13:24:40;3.40;;;0.75;;
24008;SDS011;12217;50.792;4.372;2024-01-30T13:27:08;4.60;;;1.17;;
24008;SDS011;12217;50.792;4.372;2024-01-30T13:32:03;5.10;;;1.25;;
24008;SDS011;12217;50.792;4.372;2024-01-30T13:34:38;6.70;;;1.20;;
24008;SDS011;12217;50.792;4.372;2024-01-30T13:37:05;6.45;;;1.27;;
24008;SDS011;12217;50.792;4.372;2024-01-30T13:39:30;4.20;;;1.15;;
24008;SDS011;12217;50.792;4.372;2024-01-30T13:41:56;4.53;;;1.23;;
24008;SDS011;12217;50.792;4.372;2024-01-30T13:44:22;6.57;;;1.38;;
24008;SDS011;12217;50.792;4.372;2024-01-30T13:46:47;6.00;;;1.35;;
24008;SDS011;12217;50.792;4.372;2024-01-30T13:49:13;5.53;;;1.35;;
24008;SDS011;12217;50.792;4.372;2024-01-30T13:51:38;3.28;;;1.10;;
24008;SDS011;12217;50.792;4.372;2024-01-30T13:54:04;6.47;;;1.63;;
24008;SDS011;12217;50.792;4.372;2024-01-30T13:56:30;6.03;;;1.52;;
24008;SDS011;12217;50.792;4.372;2024-01-30T13:58:56;4.00;;;1.00;;
24008;SDS011;12217;50.792;4.372;2024-01-30T14:01:22;8.27;;;1.25;;
24008;SDS011;12217;50.792;4.372;2024-01-30T14:03:48;6.63;;;1.35;;
24008;SDS011;12217;50.792;4.372;2024-01-30T14:06:14;5.80;;;1.38;;
24008;SDS011;12217;50.792;4.372;2024-01-30T14:08:40;6.95;;;1.10;;
24008;SDS011;12217;50.792;4.372;2024-01-30T14:11:05;4.50;;;1.17;;
24008;SDS011;12217;50.792;4.372;2024-01-30T14:13:31;5.20;;;1.27;;
24008;SDS011;12217;50.792;4.372;2024-01-30T14:15:57;3.70;;;1.10;;
24008;SDS011;12217;50.792;4.372;2024-01-30T14:18:23;3.63;;;1.02;;
24008;SDS011;12217;50.792;4.372;2024-01-30T14:20:50;4.85;;;0.90;;
24008;SDS011;12217;50.792;4.372;2024-01-30T14:23:16;2.35;;;0.98;;
24008;SDS011;12217;50.792;4.372;2024-01-30T14:25:42;8.98;;;1.10;;
24008;SDS011;12217;50.792;4.372;2024-01-30T14:28:08;3.83;;;1.30;;
24008;SDS011;12217;50.792;4.372;2024-01-30T14:30:34;5.15;;;1.08;;
24008;SDS011;12217;50.792;4.372;2024-01-30T14:33:00;6.38;;;1.65;;
24008;SDS011;12217;50.792;4.372;2024-01-30T14:35:26;4.03;;;1.30;;
24008;SDS011;12217;50.792;4.372;2024-01-30T14:37:52;4.97;;;1.30;;
24008;SDS011;12217;50.792;4.372;2024-01-30T14:40:18;8.40;;;1.40;;
24008;SDS011;12217;50.792;4.372;2024-01-30T14:42:44;5.25;;;1.10;;
24008;SDS011;12217;50.792;4.372;2024-01-30T14:45:10;8.35;;;1.65;;